createdAt,value
2018-02-22T00:00:14.655Z,1020.95
2018-02-22T00:00:55.203Z,1020.94
2018-02-22T00:01:35.750Z,1020.92
2018-02-22T00:02:16.302Z,1020.95
2018-02-22T00:02:56.933Z,1020.98
2018-02-22T00:03:37.481Z,1020.94
2018-02-22T00:04:18.034Z,1020.98
2018-02-22T00:04:58.584Z,1020.95
2018-02-22T00:05:39.138Z,1020.96
2018-02-22T00:06:19.688Z,1020.92
2018-02-22T00:07:00.240Z,1020.94
2018-02-22T00:07:40.805Z,1020.93
2018-02-22T00:08:21.354Z,1020.94
2018-02-22T00:09:01.930Z,1020.92
2018-02-22T00:09:42.497Z,1020.93
2018-02-22T00:10:23.050Z,1020.91
2018-02-22T00:11:03.625Z,1020.95
2018-02-22T00:11:44.164Z,1020.93
2018-02-22T00:12:24.695Z,1020.91
2018-02-22T00:13:05.242Z,1020.91
2018-02-22T00:13:45.809Z,1020.95
2018-02-22T00:14:26.364Z,1020.91
2018-02-22T00:15:06.985Z,1020.91
2018-02-22T00:15:47.576Z,1020.9
2018-02-22T00:16:28.120Z,1020.93
2018-02-22T00:17:08.686Z,1020.89
2018-02-22T00:17:49.255Z,1020.87
2018-02-22T00:18:29.805Z,1020.9
2018-02-22T00:19:10.372Z,1020.9
2018-02-22T00:19:50.921Z,1020.86
2018-02-22T00:20:31.491Z,1020.88
2018-02-22T00:21:12.049Z,1020.91
2018-02-22T00:21:52.608Z,1020.91
2018-02-22T00:22:33.170Z,1020.86
2018-02-22T00:23:13.717Z,1020.9
2018-02-22T00:23:54.277Z,1020.89
2018-02-22T00:24:34.842Z,1020.88
2018-02-22T00:25:15.399Z,1020.91
2018-02-22T00:25:55.982Z,1020.92
2018-02-22T00:26:36.529Z,1020.9
2018-02-22T00:27:17.089Z,1020.89
2018-02-22T00:27:57.639Z,1020.94
2018-02-22T00:28:38.196Z,1020.92
2018-02-22T00:29:18.763Z,1020.88
2018-02-22T00:29:59.350Z,1020.88
2018-02-22T00:30:39.897Z,1020.91
2018-02-22T00:31:20.468Z,1020.88
2018-02-22T00:32:01.039Z,1020.93
2018-02-22T00:32:41.608Z,1020.87
2018-02-22T00:33:22.158Z,1020.87
2018-02-22T00:34:02.708Z,1020.92
2018-02-22T00:34:43.258Z,1020.88
2018-02-22T00:35:23.812Z,1020.91
2018-02-22T00:36:04.356Z,1020.91
2018-02-22T00:36:44.912Z,1020.93
2018-02-22T00:37:25.452Z,1020.91
2018-02-22T00:38:06.008Z,1020.93
2018-02-22T00:38:46.563Z,1020.93
2018-02-22T00:39:27.146Z,1020.93
2018-02-22T00:40:07.703Z,1020.89
2018-02-22T00:40:48.284Z,1020.94
2018-02-22T00:41:28.829Z,1020.89
2018-02-22T00:42:09.400Z,1020.94
2018-02-22T00:42:49.956Z,1020.89
2018-02-22T00:43:30.520Z,1020.83
2018-02-22T00:44:11.082Z,1020.86
2018-02-22T00:44:51.632Z,1020.87
2018-02-22T00:45:32.189Z,1020.89
2018-02-22T00:46:12.793Z,1020.88
2018-02-22T00:46:53.349Z,1020.91
2018-02-22T00:47:33.930Z,1020.89
2018-02-22T00:48:14.612Z,1020.85
2018-02-22T00:48:55.087Z,1020.86
2018-02-22T00:49:35.637Z,1020.85
2018-02-22T00:50:16.187Z,1020.8
2018-02-22T00:50:56.738Z,1020.85
2018-02-22T00:51:37.305Z,1020.82
2018-02-22T00:52:17.842Z,1020.89
2018-02-22T00:52:58.454Z,1020.85
2018-02-22T00:53:39.023Z,1020.86
2018-02-22T00:54:19.560Z,1020.84
2018-02-22T00:55:00.122Z,1020.79
2018-02-22T00:55:40.685Z,1020.81
2018-02-22T00:56:21.240Z,1020.78
2018-02-22T00:57:01.799Z,1020.78
2018-02-22T00:57:42.360Z,1020.81
2018-02-22T00:58:22.906Z,1020.81
2018-02-22T00:59:03.461Z,1020.79
2018-02-22T00:59:44.006Z,1020.77
2018-02-22T01:00:24.550Z,1020.8
2018-02-22T01:01:05.185Z,1020.81
2018-02-22T01:01:45.677Z,1020.83
2018-02-22T01:02:26.234Z,1020.83
2018-02-22T01:03:06.797Z,1020.82
2018-02-22T01:03:47.374Z,1020.8
2018-02-22T01:04:28.091Z,1020.84
2018-02-22T01:05:08.679Z,1020.83
2018-02-22T01:05:49.226Z,1020.81
2018-02-22T01:06:29.842Z,1020.81
2018-02-22T01:07:10.397Z,1020.77
2018-02-22T01:07:51.051Z,1020.78
2018-02-22T01:08:31.623Z,1020.76
2018-02-22T01:09:12.166Z,1020.8
2018-02-22T01:09:52.701Z,1020.79
2018-02-22T01:10:33.345Z,1020.77
2018-02-22T01:11:13.897Z,1020.77
2018-02-22T01:11:54.446Z,1020.75
2018-02-22T01:12:35.006Z,1020.79
2018-02-22T01:13:15.535Z,1020.77
2018-02-22T01:13:56.097Z,1020.77
2018-02-22T01:14:36.643Z,1020.79
2018-02-22T01:15:17.196Z,1020.8
2018-02-22T01:15:57.745Z,1020.82
2018-02-22T01:16:38.292Z,1020.77
2018-02-22T01:17:18.882Z,1020.84
2018-02-22T01:17:59.536Z,1020.77
2018-02-22T01:18:40.052Z,1020.81
2018-02-22T01:19:20.717Z,1020.83
2018-02-22T01:20:01.258Z,1020.8
2018-02-22T01:20:41.828Z,1020.78
2018-02-22T01:21:22.392Z,1020.79
2018-02-22T01:22:03.002Z,1020.78
2018-02-22T01:22:43.578Z,1020.83
2018-02-22T01:23:24.149Z,1020.78
2018-02-22T01:24:04.699Z,1020.8
2018-02-22T01:24:45.518Z,1020.81
2018-02-22T01:25:26.541Z,1020.78
2018-02-22T01:26:07.303Z,1020.78
2018-02-22T01:26:47.780Z,1020.78
2018-02-22T01:27:28.353Z,1020.78
2018-02-22T01:28:08.913Z,1020.78
2018-02-22T01:28:49.475Z,1020.77
2018-02-22T01:29:30.022Z,1020.78
2018-02-22T01:30:10.578Z,1020.78
2018-02-22T01:30:51.180Z,1020.74
2018-02-22T01:31:31.743Z,1020.78
2018-02-22T01:32:12.302Z,1020.79
2018-02-22T01:32:52.935Z,1020.79
2018-02-22T01:33:33.482Z,1020.76
2018-02-22T01:34:14.083Z,1020.75
2018-02-22T01:34:54.642Z,1020.75
2018-02-22T01:35:35.277Z,1020.81
2018-02-22T01:36:15.900Z,1020.79
2018-02-22T01:36:56.507Z,1020.79
2018-02-22T01:37:37.081Z,1020.78
2018-02-22T01:38:17.876Z,1020.79
2018-02-22T01:38:58.693Z,1020.77
2018-02-22T01:39:39.341Z,1020.76
2018-02-22T01:40:19.876Z,1020.76
2018-02-22T01:41:00.424Z,1020.76
2018-02-22T01:41:40.980Z,1020.75
2018-02-22T01:42:21.554Z,1020.75
2018-02-22T01:43:02.114Z,1020.8
2018-02-22T01:43:42.686Z,1020.81
2018-02-22T01:44:23.231Z,1020.83
2018-02-22T01:45:03.853Z,1020.85
2018-02-22T01:45:44.560Z,1020.81
2018-02-22T01:46:25.008Z,1020.82
2018-02-22T01:47:05.570Z,1020.84
2018-02-22T01:47:46.115Z,1020.87
2018-02-22T01:48:26.689Z,1020.84
2018-02-22T01:49:07.225Z,1020.84
2018-02-22T01:49:47.760Z,1020.83
2018-02-22T01:50:28.334Z,1020.84
2018-02-22T01:51:08.877Z,1020.87
2018-02-22T01:51:49.500Z,1020.86
2018-02-22T01:52:30.061Z,1020.88
2018-02-22T01:53:10.668Z,1020.84
2018-02-22T01:53:51.307Z,1020.86
2018-02-22T01:54:31.790Z,1020.88
2018-02-22T01:55:12.341Z,1020.87
2018-02-22T01:55:52.896Z,1020.89
2018-02-22T01:56:33.453Z,1020.88
2018-02-22T01:57:14.009Z,1020.87
2018-02-22T01:57:54.576Z,1020.83
2018-02-22T01:58:35.140Z,1020.87
2018-02-22T01:59:15.711Z,1020.83
2018-02-22T01:59:56.268Z,1020.85
2018-02-22T02:00:36.823Z,1020.84
2018-02-22T02:01:17.382Z,1020.84
2018-02-22T02:01:57.926Z,1020.86
2018-02-22T02:02:38.689Z,1020.87
2018-02-22T02:03:19.028Z,1020.87
2018-02-22T02:03:59.607Z,1020.8
2018-02-22T02:04:40.169Z,1020.84
2018-02-22T02:05:20.715Z,1020.82
2018-02-22T02:06:01.275Z,1020.82
2018-02-22T02:06:41.824Z,1020.83
2018-02-22T02:07:22.393Z,1020.84
2018-02-22T02:08:02.931Z,1020.78
2018-02-22T02:08:43.525Z,1020.83
2018-02-22T02:09:24.145Z,1020.78
2018-02-22T02:10:04.708Z,1020.75
2018-02-22T02:10:45.239Z,1020.78
2018-02-22T02:11:25.925Z,1020.79
2018-02-22T02:12:06.466Z,1020.8
2018-02-22T02:12:47.013Z,1020.84
2018-02-22T02:13:27.563Z,1020.81
2018-02-22T02:14:08.112Z,1020.79
2018-02-22T02:14:48.672Z,1020.83
2018-02-22T02:15:29.238Z,1020.78
2018-02-22T02:16:09.846Z,1020.75
2018-02-22T02:16:50.431Z,1020.77
2018-02-22T02:17:30.958Z,1020.78
2018-02-22T02:18:11.562Z,1020.76
2018-02-22T02:18:52.103Z,1020.73
2018-02-22T02:19:32.672Z,1020.78
2018-02-22T02:20:13.220Z,1020.72
2018-02-22T02:20:53.800Z,1020.72
2018-02-22T02:21:34.361Z,1020.78
2018-02-22T02:22:14.929Z,1020.76
2018-02-22T02:22:55.486Z,1020.73
2018-02-22T02:23:36.240Z,1020.72
2018-02-22T02:24:16.685Z,1020.73
2018-02-22T02:24:57.341Z,1020.75
2018-02-22T02:25:37.890Z,1020.71
2018-02-22T02:26:18.429Z,1020.72
2018-02-22T02:26:58.999Z,1020.71
2018-02-22T02:27:39.661Z,1020.72
2018-02-22T02:28:20.297Z,1020.71
2018-02-22T02:29:00.851Z,1020.69
2018-02-22T02:29:41.416Z,1020.7
2018-02-22T02:30:22.004Z,1020.72
2018-02-22T02:31:02.559Z,1020.76
2018-02-22T02:31:43.113Z,1020.7
2018-02-22T02:32:23.655Z,1020.73
2018-02-22T02:33:04.250Z,1020.71
2018-02-22T02:33:44.824Z,1020.73
2018-02-22T02:34:25.377Z,1020.69
2018-02-22T02:35:05.926Z,1020.7
2018-02-22T02:35:46.479Z,1020.75
2018-02-22T02:36:27.040Z,1020.67
2018-02-22T02:37:07.590Z,1020.69
2018-02-22T02:37:48.159Z,1020.68
2018-02-22T02:38:28.698Z,1020.68
2018-02-22T02:39:09.266Z,1020.67
2018-02-22T02:39:49.814Z,1020.65
2018-02-22T02:40:30.363Z,1020.7
2018-02-22T02:41:10.927Z,1020.67
2018-02-22T02:41:51.495Z,1020.68
2018-02-22T02:42:32.061Z,1020.67
2018-02-22T02:43:12.616Z,1020.68
2018-02-22T02:43:53.167Z,1020.73
2018-02-22T02:44:33.734Z,1020.67
2018-02-22T02:45:14.298Z,1020.73
2018-02-22T02:45:54.862Z,1020.7
2018-02-22T02:46:35.413Z,1020.71
2018-02-22T02:47:15.992Z,1020.67
2018-02-22T02:47:56.548Z,1020.69
2018-02-22T02:48:37.099Z,1020.67
2018-02-22T02:49:17.656Z,1020.67
2018-02-22T02:49:58.246Z,1020.65
2018-02-22T02:50:38.798Z,1020.66
2018-02-22T02:51:19.370Z,1020.67
2018-02-22T02:51:59.938Z,1020.66
2018-02-22T02:52:40.493Z,1020.64
2018-02-22T02:53:21.057Z,1020.63
2018-02-22T02:54:01.607Z,1020.63
2018-02-22T02:54:42.155Z,1020.62
2018-02-22T02:55:22.725Z,1020.63
2018-02-22T02:56:03.255Z,1020.6
2018-02-22T02:56:43.803Z,1020.57
2018-02-22T02:57:24.364Z,1020.59
2018-02-22T02:58:04.914Z,1020.58
2018-02-22T02:58:45.461Z,1020.59
2018-02-22T02:59:26.024Z,1020.58
2018-02-22T03:00:06.591Z,1020.59
2018-02-22T03:00:47.140Z,1020.56
2018-02-22T03:01:27.723Z,1020.59
2018-02-22T03:02:08.290Z,1020.55
2018-02-22T03:02:48.869Z,1020.6
2018-02-22T03:03:29.416Z,1020.6
2018-02-22T03:04:09.976Z,1020.58
2018-02-22T03:04:50.562Z,1020.6
2018-02-22T03:05:31.117Z,1020.56
2018-02-22T03:06:11.672Z,1020.62
2018-02-22T03:06:52.257Z,1020.6
2018-02-22T03:07:32.806Z,1020.62
2018-02-22T03:08:13.367Z,1020.59
2018-02-22T03:08:53.925Z,1020.61
2018-02-22T03:09:34.513Z,1020.59
2018-02-22T03:10:15.275Z,1020.61
2018-02-22T03:10:55.832Z,1020.6
2018-02-22T03:11:36.384Z,1020.54
2018-02-22T03:12:16.935Z,1020.55
2018-02-22T03:12:57.489Z,1020.61
2018-02-22T03:13:38.033Z,1020.55
2018-02-22T03:14:18.588Z,1020.57
2018-02-22T03:14:59.141Z,1020.57
2018-02-22T03:15:39.697Z,1020.53
2018-02-22T03:16:20.266Z,1020.49
2018-02-22T03:17:00.841Z,1020.54
2018-02-22T03:17:41.376Z,1020.53
2018-02-22T03:18:21.923Z,1020.54
2018-02-22T03:19:02.497Z,1020.49
2018-02-22T03:19:43.062Z,1020.53
2018-02-22T03:20:23.606Z,1020.54
2018-02-22T03:21:04.155Z,1020.47
2018-02-22T03:21:44.716Z,1020.51
2018-02-22T03:22:25.275Z,1020.5
2018-02-22T03:23:05.831Z,1020.5
2018-02-22T03:23:46.391Z,1020.47
2018-02-22T03:24:26.965Z,1020.48
2018-02-22T03:25:07.563Z,1020.46
2018-02-22T03:25:48.123Z,1020.48
2018-02-22T03:26:28.673Z,1020.48
2018-02-22T03:27:09.230Z,1020.41
2018-02-22T03:27:49.779Z,1020.47
2018-02-22T03:28:30.332Z,1020.43
2018-02-22T03:29:10.882Z,1020.42
2018-02-22T03:29:51.429Z,1020.43
2018-02-22T03:30:31.985Z,1020.46
2018-02-22T03:31:12.528Z,1020.39
2018-02-22T03:31:53.080Z,1020.38
2018-02-22T03:32:33.652Z,1020.42
2018-02-22T03:33:14.199Z,1020.4
2018-02-22T03:33:54.763Z,1020.41
2018-02-22T03:34:35.317Z,1020.41
2018-02-22T03:35:15.880Z,1020.41
2018-02-22T03:35:56.432Z,1020.43
2018-02-22T03:36:37.043Z,1020.46
2018-02-22T03:37:17.605Z,1020.39
2018-02-22T03:37:58.156Z,1020.43
2018-02-22T03:38:38.728Z,1020.45
2018-02-22T03:39:19.250Z,1020.46
2018-02-22T03:39:59.807Z,1020.46
2018-02-22T03:40:40.357Z,1020.46
2018-02-22T03:41:20.911Z,1020.43
2018-02-22T03:42:01.621Z,1020.43
2018-02-22T03:42:42.372Z,1020.4
2018-02-22T03:43:23.003Z,1020.43
2018-02-22T03:44:03.635Z,1020.46
2018-02-22T03:44:44.180Z,1020.4
2018-02-22T03:45:24.868Z,1020.44
2018-02-22T03:46:05.794Z,1020.4
2018-02-22T03:46:46.695Z,1020.4
2018-02-22T03:47:27.486Z,1020.47
2018-02-22T03:48:08.296Z,1020.43
2018-02-22T03:48:48.860Z,1020.44
2018-02-22T03:49:29.410Z,1020.44
2018-02-22T03:50:09.947Z,1020.48
2018-02-22T03:50:50.523Z,1020.45
2018-02-22T03:51:31.192Z,1020.4
2018-02-22T03:52:11.722Z,1020.45
2018-02-22T03:52:52.296Z,1020.46
2018-02-22T03:53:33.048Z,1020.49
2018-02-22T03:54:13.923Z,1020.47
2018-02-22T03:54:54.870Z,1020.46
2018-02-22T03:55:35.594Z,1020.45
2018-02-22T03:56:16.707Z,1020.45
2018-02-22T03:56:57.420Z,1020.45
2018-02-22T03:57:38.178Z,1020.48
2018-02-22T03:58:19.117Z,1020.43
2018-02-22T03:58:59.816Z,1020.43
2018-02-22T03:59:40.389Z,1020.46
2018-02-22T04:00:21.137Z,1020.41
2018-02-22T04:01:01.985Z,1020.49
2018-02-22T04:01:42.563Z,1020.47
2018-02-22T04:02:23.113Z,1020.45
2018-02-22T04:03:03.666Z,1020.44
2018-02-22T04:03:44.216Z,1020.43
2018-02-22T04:04:24.767Z,1020.37
2018-02-22T04:05:05.318Z,1020.37
2018-02-22T04:05:45.868Z,1020.36
2018-02-22T04:06:26.421Z,1020.39
2018-02-22T04:07:06.977Z,1020.38
2018-02-22T04:07:47.532Z,1020.32
2018-02-22T04:08:28.092Z,1020.42
2018-02-22T04:09:08.637Z,1020.43
2018-02-22T04:09:49.188Z,1020.45
2018-02-22T04:10:29.735Z,1020.47
2018-02-22T04:11:10.286Z,1020.42
2018-02-22T04:11:50.835Z,1020.48
2018-02-22T04:12:31.379Z,1020.46
2018-02-22T04:13:11.939Z,1020.5
2018-02-22T04:13:52.502Z,1020.47
2018-02-22T04:14:33.070Z,1020.51
2018-02-22T04:15:13.621Z,1020.46
2018-02-22T04:15:54.166Z,1020.52
2018-02-22T04:16:34.713Z,1020.5
2018-02-22T04:17:15.274Z,1020.48
2018-02-22T04:17:55.836Z,1020.46
2018-02-22T04:18:36.394Z,1020.52
2018-02-22T04:19:16.943Z,1020.6
2018-02-22T04:19:57.515Z,1020.53
2018-02-22T04:20:38.082Z,1020.54
2018-02-22T04:21:18.636Z,1020.53
2018-02-22T04:21:59.196Z,1020.55
2018-02-22T04:22:39.749Z,1020.55
2018-02-22T04:23:20.302Z,1020.5
2018-02-22T04:24:00.851Z,1020.54
2018-02-22T04:24:41.471Z,1020.53
2018-02-22T04:25:22.020Z,1020.57
2018-02-22T04:26:02.583Z,1020.53
2018-02-22T04:26:43.152Z,1020.55
2018-02-22T04:27:23.894Z,1020.52
2018-02-22T04:28:04.441Z,1020.59
2018-02-22T04:28:45.007Z,1020.53
2018-02-22T04:29:25.558Z,1020.52
2018-02-22T04:30:06.109Z,1020.6
2018-02-22T04:30:46.673Z,1020.57
2018-02-22T04:31:27.225Z,1020.58
2018-02-22T04:32:07.761Z,1020.6
2018-02-22T04:32:48.311Z,1020.59
2018-02-22T04:33:28.968Z,1020.58
2018-02-22T04:34:09.539Z,1020.64
2018-02-22T04:34:50.072Z,1020.64
2018-02-22T04:35:30.666Z,1020.63
2018-02-22T04:36:11.173Z,1020.61
2018-02-22T04:36:51.726Z,1020.64
2018-02-22T04:37:32.276Z,1020.61
2018-02-22T04:38:12.825Z,1020.65
2018-02-22T04:38:53.367Z,1020.63
2018-02-22T04:39:33.916Z,1020.61
2018-02-22T04:40:14.473Z,1020.64
2018-02-22T04:40:55.020Z,1020.66
2018-02-22T04:41:35.600Z,1020.6
2018-02-22T04:42:16.133Z,1020.61
2018-02-22T04:42:56.712Z,1020.6
2018-02-22T04:43:37.482Z,1020.65
2018-02-22T04:44:17.808Z,1020.62
2018-02-22T04:44:58.373Z,1020.64
2018-02-22T04:45:38.943Z,1020.63
2018-02-22T04:46:19.457Z,1020.62
2018-02-22T04:47:00.007Z,1020.62
2018-02-22T04:47:40.548Z,1020.64
2018-02-22T04:48:21.094Z,1020.61
2018-02-22T04:49:01.658Z,1020.61
2018-02-22T04:49:42.196Z,1020.59
2018-02-22T04:50:22.766Z,1020.6
2018-02-22T04:51:03.308Z,1020.65
2018-02-22T04:51:43.855Z,1020.66
2018-02-22T04:52:24.385Z,1020.64
2018-02-22T04:53:04.938Z,1020.66
2018-02-22T04:53:45.489Z,1020.64
2018-02-22T04:54:26.095Z,1020.62
2018-02-22T04:55:06.623Z,1020.62
2018-02-22T04:55:47.171Z,1020.62
2018-02-22T04:56:27.739Z,1020.65
2018-02-22T04:57:08.259Z,1020.61
2018-02-22T04:57:48.807Z,1020.65
2018-02-22T04:58:29.367Z,1020.65
2018-02-22T04:59:09.918Z,1020.66
2018-02-22T04:59:50.479Z,1020.68
2018-02-22T05:00:31.009Z,1020.68
2018-02-22T05:01:11.558Z,1020.64
2018-02-22T05:01:52.121Z,1020.64
2018-02-22T05:02:32.672Z,1020.65
2018-02-22T05:03:13.249Z,1020.64
2018-02-22T05:03:53.806Z,1020.62
2018-02-22T05:04:34.327Z,1020.64
2018-02-22T05:05:14.884Z,1020.63
2018-02-22T05:05:55.430Z,1020.62
2018-02-22T05:06:35.991Z,1020.7
2018-02-22T05:07:16.532Z,1020.63
2018-02-22T05:07:57.079Z,1020.7
2018-02-22T05:08:37.649Z,1020.62
2018-02-22T05:09:18.187Z,1020.65
2018-02-22T05:09:58.737Z,1020.65
2018-02-22T05:10:39.303Z,1020.64
2018-02-22T05:11:19.843Z,1020.64
2018-02-22T05:12:00.388Z,1020.67
2018-02-22T05:12:40.946Z,1020.63
2018-02-22T05:13:21.476Z,1020.63
2018-02-22T05:14:02.048Z,1020.64
2018-02-22T05:14:42.590Z,1020.67
2018-02-22T05:15:23.151Z,1020.63
2018-02-22T05:16:03.706Z,1020.6
2018-02-22T05:16:44.248Z,1020.6
2018-02-22T05:17:24.804Z,1020.58
2018-02-22T05:18:05.351Z,1020.58
2018-02-22T05:18:45.912Z,1020.62
2018-02-22T05:19:26.457Z,1020.61
2018-02-22T05:20:07.026Z,1020.63
2018-02-22T05:20:47.575Z,1020.65
2018-02-22T05:21:28.127Z,1020.62
2018-02-22T05:22:08.680Z,1020.65
2018-02-22T05:22:49.232Z,1020.66
2018-02-22T05:23:29.779Z,1020.64
2018-02-22T05:24:10.331Z,1020.65
2018-02-22T05:24:50.942Z,1020.73
2018-02-22T05:25:31.464Z,1020.72
2018-02-22T05:26:12.027Z,1020.71
2018-02-22T05:26:52.642Z,1020.69
2018-02-22T05:27:33.174Z,1020.69
2018-02-22T05:28:13.745Z,1020.73
2018-02-22T05:28:54.293Z,1020.71
2018-02-22T05:29:34.889Z,1020.69
2018-02-22T05:30:15.466Z,1020.72
2018-02-22T05:30:56.017Z,1020.72
2018-02-22T05:31:36.603Z,1020.72
2018-02-22T05:32:17.171Z,1020.71
2018-02-22T05:32:57.730Z,1020.75
2018-02-22T05:33:38.289Z,1020.76
2018-02-22T05:34:18.908Z,1020.74
2018-02-22T05:34:59.441Z,1020.75
2018-02-22T05:35:40.024Z,1020.76
2018-02-22T05:36:20.766Z,1020.74
2018-02-22T05:37:01.489Z,1020.74
2018-02-22T05:37:42.042Z,1020.72
2018-02-22T05:38:22.597Z,1020.75
2018-02-22T05:39:03.161Z,1020.7
2018-02-22T05:39:43.723Z,1020.72
2018-02-22T05:40:24.280Z,1020.72
2018-02-22T05:41:04.827Z,1020.74
2018-02-22T05:41:45.377Z,1020.71
2018-02-22T05:42:25.936Z,1020.71
2018-02-22T05:43:06.484Z,1020.69
2018-02-22T05:43:47.030Z,1020.74
2018-02-22T05:44:27.587Z,1020.72
2018-02-22T05:45:08.174Z,1020.73
2018-02-22T05:45:48.740Z,1020.75
2018-02-22T05:46:29.304Z,1020.71
2018-02-22T05:47:09.865Z,1020.7
2018-02-22T05:47:50.417Z,1020.69
2018-02-22T05:48:30.978Z,1020.67
2018-02-22T05:49:11.536Z,1020.67
2018-02-22T05:49:52.343Z,1020.74
2018-02-22T05:50:32.914Z,1020.79
2018-02-22T05:51:13.469Z,1020.74
2018-02-22T05:51:54.020Z,1020.71
2018-02-22T05:52:34.579Z,1020.74
2018-02-22T05:53:15.140Z,1020.71
2018-02-22T05:53:55.695Z,1020.74
2018-02-22T05:54:36.260Z,1020.8
2018-02-22T05:55:16.879Z,1020.74
2018-02-22T05:55:57.375Z,1020.74
2018-02-22T05:56:37.912Z,1020.71
2018-02-22T05:57:18.462Z,1020.73
2018-02-22T05:57:59.013Z,1020.72
2018-02-22T05:58:39.560Z,1020.76
2018-02-22T05:59:20.142Z,1020.73
2018-02-22T06:00:00.713Z,1020.76
2018-02-22T06:00:41.296Z,1020.75
2018-02-22T06:01:21.860Z,1020.78
2018-02-22T06:02:02.414Z,1020.74
2018-02-22T06:02:42.967Z,1020.8
2018-02-22T06:03:23.512Z,1020.74
2018-02-22T06:04:04.069Z,1020.77
2018-02-22T06:04:44.618Z,1020.77
2018-02-22T06:05:25.188Z,1020.77
2018-02-22T06:06:05.758Z,1020.76
2018-02-22T06:06:46.273Z,1020.8
2018-02-22T06:07:26.827Z,1020.77
2018-02-22T06:08:07.369Z,1020.74
2018-02-22T06:08:47.947Z,1020.75
2018-02-22T06:09:28.538Z,1020.76
2018-02-22T06:10:09.091Z,1020.74
2018-02-22T06:10:49.666Z,1020.68
2018-02-22T06:11:30.212Z,1020.69
2018-02-22T06:12:10.765Z,1020.69
2018-02-22T06:12:51.302Z,1020.62
2018-02-22T06:13:31.901Z,1020.6
2018-02-22T06:14:12.425Z,1020.59
2018-02-22T06:14:52.981Z,1020.54
2018-02-22T06:15:33.540Z,1020.62
2018-02-22T06:16:14.090Z,1020.59
2018-02-22T06:16:54.647Z,1020.65
2018-02-22T06:17:35.203Z,1020.62
2018-02-22T06:18:15.760Z,1020.59
2018-02-22T06:18:56.312Z,1020.61
2018-02-22T06:19:36.862Z,1020.63
2018-02-22T06:20:17.399Z,1020.66
2018-02-22T06:20:57.944Z,1020.62
2018-02-22T06:21:38.519Z,1020.65
2018-02-22T06:22:19.066Z,1020.7
2018-02-22T06:22:59.631Z,1020.7
2018-02-22T06:23:40.237Z,1020.67
2018-02-22T06:24:20.829Z,1020.72
2018-02-22T06:25:01.395Z,1020.7
2018-02-22T06:25:41.946Z,1020.77
2018-02-22T06:26:22.509Z,1020.79
2018-02-22T06:27:03.085Z,1020.81
2018-02-22T06:27:43.623Z,1020.8
2018-02-22T06:28:24.179Z,1020.81
2018-02-22T06:29:04.748Z,1020.82
2018-02-22T06:29:45.308Z,1020.8
2018-02-22T06:30:25.851Z,1020.82
2018-02-22T06:31:06.410Z,1020.8
2018-02-22T06:31:46.968Z,1020.83
2018-02-22T06:32:27.527Z,1020.78
2018-02-22T06:33:08.085Z,1020.8
2018-02-22T06:33:48.675Z,1020.81
2018-02-22T06:34:29.209Z,1020.77
2018-02-22T06:35:09.758Z,1020.82
2018-02-22T06:35:50.343Z,1020.8
2018-02-22T06:36:30.910Z,1020.78
2018-02-22T06:37:11.463Z,1020.81
2018-02-22T06:37:52.005Z,1020.77
2018-02-22T06:38:32.573Z,1020.83
2018-02-22T06:39:13.128Z,1020.83
2018-02-22T06:39:53.679Z,1020.87
2018-02-22T06:40:34.372Z,1020.87
2018-02-22T06:41:14.887Z,1020.88
2018-02-22T06:41:55.439Z,1020.85
2018-02-22T06:42:35.986Z,1020.91
2018-02-22T06:43:16.544Z,1020.87
2018-02-22T06:43:57.085Z,1020.9
2018-02-22T06:44:37.654Z,1020.92
2018-02-22T06:45:18.220Z,1020.86
2018-02-22T06:45:58.761Z,1020.84
2018-02-22T06:46:39.310Z,1020.89
2018-02-22T06:47:19.851Z,1020.86
2018-02-22T06:48:00.419Z,1020.87
2018-02-22T06:48:40.983Z,1020.87
2018-02-22T06:49:21.518Z,1020.93
2018-02-22T06:50:02.246Z,1020.88
2018-02-22T06:50:42.684Z,1020.86
2018-02-22T06:51:23.246Z,1020.87
2018-02-22T06:52:03.823Z,1020.87
2018-02-22T06:52:44.661Z,1020.89
2018-02-22T06:53:25.814Z,1020.89
2018-02-22T06:54:06.928Z,1020.89
2018-02-22T06:54:47.610Z,1020.85
2018-02-22T06:55:29.132Z,1020.88
2018-02-22T06:56:09.896Z,1020.89
2018-02-22T06:56:50.447Z,1020.88
2018-02-22T06:57:31.025Z,1020.89
2018-02-22T06:58:11.612Z,1020.91
2018-02-22T06:58:52.381Z,1020.88
2018-02-22T06:59:33.520Z,1020.91
2018-02-22T07:00:14.460Z,1020.89
2018-02-22T07:00:55.514Z,1020.89
2018-02-22T07:01:36.424Z,1020.93
2018-02-22T07:02:17.397Z,1020.95
2018-02-22T07:02:58.618Z,1020.94
2018-02-22T07:03:39.387Z,1020.94
2018-02-22T07:04:19.950Z,1020.93
2018-02-22T07:05:00.503Z,1020.96
2018-02-22T07:05:41.690Z,1020.98
2018-02-22T07:06:22.594Z,1020.97
2018-02-22T07:07:03.750Z,1020.98
2018-02-22T07:07:44.447Z,1020.98
2018-02-22T07:08:25.268Z,1021
2018-02-22T07:09:06.095Z,1021.01
2018-02-22T07:09:46.786Z,1020.98
2018-02-22T07:10:27.831Z,1021
2018-02-22T07:11:11.567Z,1021.03
2018-02-22T07:11:52.122Z,1021.04
2018-02-22T07:12:32.690Z,1021.04
2018-02-22T07:13:13.232Z,1021.04
2018-02-22T07:13:53.854Z,1021.03
2018-02-22T07:14:34.936Z,1021.04
2018-02-22T07:15:15.922Z,1021.04
2018-02-22T07:15:56.597Z,1021.08
2018-02-22T07:16:37.161Z,1021.08
2018-02-22T07:17:17.727Z,1021.09
2018-02-22T07:17:58.275Z,1021.08
2018-02-22T07:18:38.826Z,1021.1
2018-02-22T07:19:19.391Z,1021.09
2018-02-22T07:19:59.946Z,1021.09
2018-02-22T07:20:40.528Z,1021.1
2018-02-22T07:21:21.099Z,1021.13
2018-02-22T07:22:01.663Z,1021.13
2018-02-22T07:22:42.263Z,1021.12
2018-02-22T07:23:22.800Z,1021.15
2018-02-22T07:24:03.396Z,1021.15
2018-02-22T07:24:43.947Z,1021.17
2018-02-22T07:25:24.510Z,1021.13
2018-02-22T07:26:05.294Z,1021.21
2018-02-22T07:26:45.905Z,1021.15
2018-02-22T07:27:26.578Z,1021.21
2018-02-22T07:28:07.113Z,1021.2
2018-02-22T07:28:47.737Z,1021.23
2018-02-22T07:29:28.264Z,1021.15
2018-02-22T07:30:08.862Z,1021.22
2018-02-22T07:30:49.571Z,1021.21
2018-02-22T07:31:30.114Z,1021.21
2018-02-22T07:32:10.671Z,1021.14
2018-02-22T07:32:51.417Z,1021.21
2018-02-22T07:33:31.948Z,1021.19
2018-02-22T07:34:12.531Z,1021.2
2018-02-22T07:34:53.097Z,1021.2
2018-02-22T07:35:33.692Z,1021.18
2018-02-22T07:36:14.273Z,1021.2
2018-02-22T07:36:54.845Z,1021.19
2018-02-22T07:37:35.396Z,1021.18
2018-02-22T07:38:15.991Z,1021.18
2018-02-22T07:38:56.509Z,1021.16
2018-02-22T07:39:37.059Z,1021.13
2018-02-22T07:40:17.619Z,1021.16
2018-02-22T07:40:58.459Z,1021.17
2018-02-22T07:41:39.030Z,1021.19
2018-02-22T07:42:19.587Z,1021.15
2018-02-22T07:43:00.300Z,1021.14
2018-02-22T07:43:40.857Z,1021.13
2018-02-22T07:44:21.489Z,1021.21
2018-02-22T07:45:02.061Z,1021.18
2018-02-22T07:45:42.584Z,1021.17
2018-02-22T07:46:23.157Z,1021.19
2018-02-22T07:47:03.750Z,1021.18
2018-02-22T07:47:44.353Z,1021.18
2018-02-22T07:48:24.918Z,1021.19
2018-02-22T07:49:05.999Z,1021.23
2018-02-22T07:49:46.556Z,1021.22
2018-02-22T07:50:27.141Z,1021.23
2018-02-22T07:51:07.915Z,1021.19
2018-02-22T07:51:48.556Z,1021.25
2018-02-22T07:52:29.549Z,1021.24
2018-02-22T07:53:10.100Z,1021.23
2018-02-22T07:53:50.964Z,1021.23
2018-02-22T07:54:31.827Z,1021.24
2018-02-22T07:55:12.865Z,1021.23
2018-02-22T07:55:53.850Z,1021.26
2018-02-22T07:56:35.637Z,1021.22
2018-02-22T07:57:17.109Z,1021.21
2018-02-22T07:57:57.591Z,1021.21
2018-02-22T07:58:38.462Z,1021.23
2018-02-22T07:59:19.126Z,1021.22
2018-02-22T07:59:59.922Z,1021.21
2018-02-22T08:00:40.630Z,1021.23
2018-02-22T08:01:21.547Z,1021.22
2018-02-22T08:02:02.126Z,1021.26
2018-02-22T08:02:42.880Z,1021.28
2018-02-22T08:03:24.012Z,1021.31
2018-02-22T08:04:04.875Z,1021.27
2018-02-22T08:04:45.722Z,1021.19
2018-02-22T08:05:28.728Z,1021.26
2018-02-22T08:06:09.326Z,1021.2
2018-02-22T08:06:50.091Z,1021.28
2018-02-22T08:07:30.670Z,1021.27
2018-02-22T08:08:11.429Z,1021.26
2018-02-22T08:08:52.125Z,1021.3
2018-02-22T08:09:32.670Z,1021.25
2018-02-22T08:10:13.554Z,1021.28
2018-02-22T08:10:54.720Z,1021.26
2018-02-22T08:11:35.349Z,1021.26
2018-02-22T08:12:15.900Z,1021.26
2018-02-22T08:12:56.475Z,1021.29